sensor_id;sensor_type;location;lat;lon;timestamp;temperature;humidity
23251;DHT22;11794;49.730;10.088;2023-04-03T00:01:12;1.10;99.90
23251;DHT22;11794;49.730;10.088;2023-04-03T00:03:38;1.10;99.90
23251;DHT22;11794;49.730;10.088;2023-04-03T00:06:04;1.10;99.90
23251;DHT22;11794;49.730;10.088;2023-04-03T00:08:32;1.00;99.90
23251;DHT22;11794;49.730;10.088;2023-04-03T00:10:58;1.00;99.90
23251;DHT22;11794;49.730;10.088;2023-04-03T00:13:24;1.00;99.90
23251;DHT22;11794;49.730;10.088;2023-04-03T00:15:50;1.00;99.90
23251;DHT22;11794;49.730;10.088;2023-04-03T00:18:16;0.90;99.90
23251;DHT22;11794;49.730;10.088;2023-04-03T00:20:42;1.00;99.90
23251;DHT22;11794;49.730;10.088;2023-04-03T00:23:07;1.00;99.90
23251;DHT22;11794;49.730;10.088;2023-04-03T00:25:34;1.10;99.90
23251;DHT22;11794;49.730;10.088;2023-04-03T00:28:00;1.00;99.90
23251;DHT22;11794;49.730;10.088;2023-04-03T00:30:26;1.00;99.90
23251;DHT22;11794;49.730;10.088;2023-04-03T00:32:52;1.00;99.90
23251;DHT22;11794;49.730;10.088;2023-04-03T00:35:19;1.10;99.90
23251;DHT22;11794;49.730;10.088;2023-04-03T00:37:45;1.20;99.90
23251;DHT22;11794;49.730;10.088;2023-04-03T00:40:13;1.10;99.90
23251;DHT22;11794;49.730;10.088;2023-04-03T00:42:41;1.00;99.90
23251;DHT22;11794;49.730;10.088;2023-04-03T00:47:36;1.00;99.90
23251;DHT22;11794;49.730;10.088;2023-04-03T00:50:01;1.00;99.90
23251;DHT22;11794;49.730;10.088;2023-04-03T00:52:29;1.00;99.90
23251;DHT22;11794;49.730;10.088;2023-04-03T00:54:59;1.10;99.90
23251;DHT22;11794;49.730;10.088;2023-04-03T00:57:27;1.10;99.90
23251;DHT22;11794;49.730;10.088;2023-04-03T00:59:57;1.10;99.90
23251;DHT22;11794;49.730;10.088;2023-04-03T01:02:24;1.20;99.90
23251;DHT22;11794;49.730;10.088;2023-04-03T01:04:51;1.20;99.90
23251;DHT22;11794;49.730;10.088;2023-04-03T01:07:20;1.20;99.90
23251;DHT22;11794;49.730;10.088;2023-04-03T01:09:48;1.10;99.90
23251;DHT22;11794;49.730;10.088;2023-04-03T01:12:24;1.20;99.90
23251;DHT22;11794;49.730;10.088;2023-04-03T01:14:59;1.20;99.90
23251;DHT22;11794;49.730;10.088;2023-04-03T01:17:36;1.20;99.90
23251;DHT22;11794;49.730;10.088;2023-04-03T01:25:46;1.10;99.90
23251;DHT22;11794;49.730;10.088;2023-04-03T01:28:21;1.20;99.90
23251;DHT22;11794;49.730;10.088;2023-04-03T01:33:35;1.20;99.90
23251;DHT22;11794;49.730;10.088;2023-04-03T01:36:01;1.30;99.90
23251;DHT22;11794;49.730;10.088;2023-04-03T01:38:26;1.30;99.90
23251;DHT22;11794;49.730;10.088;2023-04-03T01:40:52;1.30;99.90
23251;DHT22;11794;49.730;10.088;2023-04-03T01:43:18;1.30;99.90
23251;DHT22;11794;49.730;10.088;2023-04-03T01:45:43;1.30;99.90
23251;DHT22;11794;49.730;10.088;2023-04-03T01:48:09;1.30;99.90
23251;DHT22;11794;49.730;10.088;2023-04-03T01:50:34;1.40;99.90
23251;DHT22;11794;49.730;10.088;2023-04-03T01:53:00;1.30;99.90
23251;DHT22;11794;49.730;10.088;2023-04-03T01:55:25;1.30;99.90
23251;DHT22;11794;49.730;10.088;2023-04-03T01:57:51;1.30;99.90
23251;DHT22;11794;49.730;10.088;2023-04-03T02:00:16;1.30;99.90
23251;DHT22;11794;49.730;10.088;2023-04-03T02:02:42;1.30;99.90
23251;DHT22;11794;49.730;10.088;2023-04-03T02:05:08;1.30;99.90
23251;DHT22;11794;49.730;10.088;2023-04-03T02:07:33;1.40;99.90
23251;DHT22;11794;49.730;10.088;2023-04-03T02:09:59;1.50;99.90
23251;DHT22;11794;49.730;10.088;2023-04-03T02:12:24;1.50;99.90
23251;DHT22;11794;49.730;10.088;2023-04-03T02:14:50;1.60;99.90
23251;DHT22;11794;49.730;10.088;2023-04-03T02:17:15;1.60;99.90
23251;DHT22;11794;49.730;10.088;2023-04-03T02:19:41;1.60;99.90
23251;DHT22;11794;49.730;10.088;2023-04-03T02:22:07;1.70;99.90
23251;DHT22;11794;49.730;10.088;2023-04-03T02:24:32;1.70;99.90
23251;DHT22;11794;49.730;10.088;2023-04-03T02:26:58;1.70;99.90
23251;DHT22;11794;49.730;10.088;2023-04-03T02:29:24;1.70;99.90
23251;DHT22;11794;49.730;10.088;2023-04-03T02:31:50;1.70;99.90
23251;DHT22;11794;49.730;10.088;2023-04-03T02:34:16;1.70;99.90
23251;DHT22;11794;49.730;10.088;2023-04-03T02:36:41;1.80;99.90
23251;DHT22;11794;49.730;10.088;2023-04-03T02:39:08;1.80;99.90
23251;DHT22;11794;49.730;10.088;2023-04-03T02:41:34;1.80;99.90
23251;DHT22;11794;49.730;10.088;2023-04-03T02:44:04;1.90;99.90
23251;DHT22;11794;49.730;10.088;2023-04-03T02:46:30;1.90;99.90
23251;DHT22;11794;49.730;10.088;2023-04-03T02:48:56;1.90;99.90
23251;DHT22;11794;49.730;10.088;2023-04-03T02:51:21;1.90;99.90
23251;DHT22;11794;49.730;10.088;2023-04-03T02:53:48;1.90;99.90
23251;DHT22;11794;49.730;10.088;2023-04-03T02:56:14;2.00;99.90
23251;DHT22;11794;49.730;10.088;2023-04-03T02:58:40;2.00;99.90
23251;DHT22;11794;49.730;10.088;2023-04-03T03:01:05;2.00;99.90
23251;DHT22;11794;49.730;10.088;2023-04-03T03:03:31;2.10;99.90
23251;DHT22;11794;49.730;10.088;2023-04-03T03:06:04;2.10;99.90
23251;DHT22;11794;49.730;10.088;2023-04-03T03:08:31;2.10;99.90
23251;DHT22;11794;49.730;10.088;2023-04-03T03:10:56;2.10;99.90
23251;DHT22;11794;49.730;10.088;2023-04-03T03:13:22;2.10;99.90
23251;DHT22;11794;49.730;10.088;2023-04-03T03:15:47;2.10;99.90
23251;DHT22;11794;49.730;10.088;2023-04-03T03:18:13;2.10;99.90
23251;DHT22;11794;49.730;10.088;2023-04-03T03:20:39;2.20;99.90
23251;DHT22;11794;49.730;10.088;2023-04-03T03:23:04;2.20;99.90
23251;DHT22;11794;49.730;10.088;2023-04-03T03:25:30;2.20;99.90
23251;DHT22;11794;49.730;10.088;2023-04-03T03:27:55;2.20;99.90
23251;DHT22;11794;49.730;10.088;2023-04-03T03:30:21;2.20;99.90
23251;DHT22;11794;49.730;10.088;2023-04-03T03:32:47;2.30;99.90
23251;DHT22;11794;49.730;10.088;2023-04-03T03:35:12;2.30;99.90
23251;DHT22;11794;49.730;10.088;2023-04-03T03:37:38;2.30;99.90
23251;DHT22;11794;49.730;10.088;2023-04-03T03:40:04;2.30;99.90
23251;DHT22;11794;49.730;10.088;2023-04-03T03:42:29;2.30;99.90
23251;DHT22;11794;49.730;10.088;2023-04-03T03:44:55;2.40;99.90
23251;DHT22;11794;49.730;10.088;2023-04-03T03:47:20;2.40;99.90
23251;DHT22;11794;49.730;10.088;2023-04-03T03:49:46;2.50;99.90
23251;DHT22;11794;49.730;10.088;2023-04-03T03:52:11;2.40;99.90
23251;DHT22;11794;49.730;10.088;2023-04-03T03:54:37;2.40;99.90
23251;DHT22;11794;49.730;10.088;2023-04-03T03:57:03;2.50;99.90
23251;DHT22;11794;49.730;10.088;2023-04-03T03:59:28;2.50;99.90
23251;DHT22;11794;49.730;10.088;2023-04-03T04:01:54;2.50;99.90
23251;DHT22;11794;49.730;10.088;2023-04-03T04:04:20;2.50;99.90
23251;DHT22;11794;49.730;10.088;2023-04-03T04:06:46;2.50;99.90
23251;DHT22;11794;49.730;10.088;2023-04-03T04:09:12;2.50;99.90
23251;DHT22;11794;49.730;10.088;2023-04-03T04:11:37;2.50;99.90
23251;DHT22;11794;49.730;10.088;2023-04-03T04:14:05;2.50;99.90
23251;DHT22;11794;49.730;10.088;2023-04-03T04:16:31;2.50;99.90
23251;DHT22;11794;49.730;10.088;2023-04-03T04:18:56;2.50;99.90
23251;DHT22;11794;49.730;10.088;2023-04-03T04:21:22;2.50;99.90
23251;DHT22;11794;49.730;10.088;2023-04-03T04:23:47;2.50;99.90
23251;DHT22;11794;49.730;10.088;2023-04-03T04:26:13;2.50;99.90
23251;DHT22;11794;49.730;10.088;2023-04-03T04:28:38;2.50;99.90
23251;DHT22;11794;49.730;10.088;2023-04-03T04:31:04;2.50;99.90
23251;DHT22;11794;49.730;10.088;2023-04-03T04:33:29;2.50;99.90
23251;DHT22;11794;49.730;10.088;2023-04-03T04:35:55;2.40;99.90
23251;DHT22;11794;49.730;10.088;2023-04-03T04:38:21;2.40;99.90
23251;DHT22;11794;49.730;10.088;2023-04-03T04:40:47;2.40;99.90
23251;DHT22;11794;49.730;10.088;2023-04-03T04:43:13;2.40;99.90
23251;DHT22;11794;49.730;10.088;2023-04-03T04:45:40;2.40;99.90
23251;DHT22;11794;49.730;10.088;2023-04-03T04:48:05;2.40;99.90
23251;DHT22;11794;49.730;10.088;2023-04-03T04:50:31;2.40;99.90
23251;DHT22;11794;49.730;10.088;2023-04-03T04:52:56;2.40;99.90
23251;DHT22;11794;49.730;10.088;2023-04-03T04:55:22;2.30;99.90
23251;DHT22;11794;49.730;10.088;2023-04-03T04:57:47;2.30;99.90
23251;DHT22;11794;49.730;10.088;2023-04-03T05:00:13;2.30;99.90
23251;DHT22;11794;49.730;10.088;2023-04-03T05:02:39;2.20;99.90
23251;DHT22;11794;49.730;10.088;2023-04-03T05:05:05;2.10;99.90
23251;DHT22;11794;49.730;10.088;2023-04-03T05:07:31;2.10;99.90
23251;DHT22;11794;49.730;10.088;2023-04-03T05:09:56;2.10;99.90
23251;DHT22;11794;49.730;10.088;2023-04-03T05:12:23;2.10;99.90
23251;DHT22;11794;49.730;10.088;2023-04-03T05:14:48;2.10;99.90
23251;DHT22;11794;49.730;10.088;2023-04-03T05:17:14;2.10;99.90
23251;DHT22;11794;49.730;10.088;2023-04-03T05:19:39;2.00;99.90
23251;DHT22;11794;49.730;10.088;2023-04-03T05:22:05;2.00;99.90
23251;DHT22;11794;49.730;10.088;2023-04-03T05:24:31;2.00;99.90
23251;DHT22;11794;49.730;10.088;2023-04-03T05:26:56;2.00;99.90
23251;DHT22;11794;49.730;10.088;2023-04-03T05:29:22;2.00;99.90
23251;DHT22;11794;49.730;10.088;2023-04-03T05:31:49;1.90;99.90
23251;DHT22;11794;49.730;10.088;2023-04-03T05:34:15;1.90;99.90
23251;DHT22;11794;49.730;10.088;2023-04-03T05:36:41;2.00;99.90
23251;DHT22;11794;49.730;10.088;2023-04-03T05:39:07;2.10;99.90
23251;DHT22;11794;49.730;10.088;2023-04-03T05:41:33;2.10;99.90
23251;DHT22;11794;49.730;10.088;2023-04-03T05:43:58;2.10;99.90
23251;DHT22;11794;49.730;10.088;2023-04-03T05:46:24;2.00;99.90
23251;DHT22;11794;49.730;10.088;2023-04-03T05:48:49;2.00;99.90
23251;DHT22;11794;49.730;10.088;2023-04-03T05:51:33;2.10;99.90
23251;DHT22;11794;49.730;10.088;2023-04-03T05:54:09;2.00;99.90
23251;DHT22;11794;49.730;10.088;2023-04-03T05:56:35;2.00;99.90
23251;DHT22;11794;49.730;10.088;2023-04-03T05:59:01;1.90;99.90
23251;DHT22;11794;49.730;10.088;2023-04-03T06:01:26;1.90;99.90
23251;DHT22;11794;49.730;10.088;2023-04-03T06:03:52;2.10;99.90
23251;DHT22;11794;49.730;10.088;2023-04-03T06:06:17;2.20;99.90
23251;DHT22;11794;49.730;10.088;2023-04-03T06:08:43;2.20;99.90
23251;DHT22;11794;49.730;10.088;2023-04-03T06:11:09;2.20;99.90
23251;DHT22;11794;49.730;10.088;2023-04-03T06:13:34;2.40;99.90
23251;DHT22;11794;49.730;10.088;2023-04-03T06:16:00;2.40;99.90
23251;DHT22;11794;49.730;10.088;2023-04-03T06:18:26;2.40;99.90
23251;DHT22;11794;49.730;10.088;2023-04-03T06:20:52;2.30;99.90
23251;DHT22;11794;49.730;10.088;2023-04-03T06:23:17;2.50;99.90
23251;DHT22;11794;49.730;10.088;2023-04-03T06:25:43;2.80;99.90
23251;DHT22;11794;49.730;10.088;2023-04-03T06:28:09;3.00;99.90
23251;DHT22;11794;49.730;10.088;2023-04-03T06:30:35;3.00;99.90
23251;DHT22;11794;49.730;10.088;2023-04-03T06:33:02;3.10;99.90
23251;DHT22;11794;49.730;10.088;2023-04-03T06:35:27;3.00;99.90
23251;DHT22;11794;49.730;10.088;2023-04-03T06:37:53;2.90;99.90
23251;DHT22;11794;49.730;10.088;2023-04-03T06:40:22;2.80;99.90
23251;DHT22;11794;49.730;10.088;2023-04-03T06:42:48;2.70;99.90
23251;DHT22;11794;49.730;10.088;2023-04-03T06:45:14;2.80;99.90
23251;DHT22;11794;49.730;10.088;2023-04-03T06:47:40;2.80;99.90
23251;DHT22;11794;49.730;10.088;2023-04-03T06:50:05;2.80;99.90
23251;DHT22;11794;49.730;10.088;2023-04-03T06:52:32;2.80;99.90
23251;DHT22;11794;49.730;10.088;2023-04-03T06:54:58;2.90;99.90
23251;DHT22;11794;49.730;10.088;2023-04-03T06:57:25;2.90;99.90
23251;DHT22;11794;49.730;10.088;2023-04-03T06:59:50;2.90;99.90
23251;DHT22;11794;49.730;10.088;2023-04-03T07:02:16;3.00;99.90
23251;DHT22;11794;49.730;10.088;2023-04-03T07:04:42;3.10;99.90
23251;DHT22;11794;49.730;10.088;2023-04-03T07:07:07;3.10;99.90
23251;DHT22;11794;49.730;10.088;2023-04-03T07:09:33;3.30;99.90
23251;DHT22;11794;49.730;10.088;2023-04-03T07:11:59;3.40;99.90
23251;DHT22;11794;49.730;10.088;2023-04-03T07:14:24;3.30;99.90
23251;DHT22;11794;49.730;10.088;2023-04-03T07:16:50;3.20;99.90
23251;DHT22;11794;49.730;10.088;2023-04-03T07:19:15;3.20;99.90
23251;DHT22;11794;49.730;10.088;2023-04-03T07:21:41;3.20;99.90
23251;DHT22;11794;49.730;10.088;2023-04-03T07:24:07;3.30;99.90
23251;DHT22;11794;49.730;10.088;2023-04-03T07:26:33;3.30;99.90
23251;DHT22;11794;49.730;10.088;2023-04-03T07:28:58;3.30;99.90
23251;DHT22;11794;49.730;10.088;2023-04-03T07:31:24;3.40;99.90
23251;DHT22;11794;49.730;10.088;2023-04-03T07:33:50;3.60;99.90
23251;DHT22;11794;49.730;10.088;2023-04-03T07:36:19;3.70;99.90
23251;DHT22;11794;49.730;10.088;2023-04-03T07:38:45;3.70;99.90
23251;DHT22;11794;49.730;10.088;2023-04-03T07:41:15;3.70;99.90
23251;DHT22;11794;49.730;10.088;2023-04-03T07:43:41;4.00;99.90
23251;DHT22;11794;49.730;10.088;2023-04-03T07:46:07;4.50;99.90
23251;DHT22;11794;49.730;10.088;2023-04-03T07:48:34;5.20;99.90
23251;DHT22;11794;49.730;10.088;2023-04-03T07:51:01;5.40;99.90
23251;DHT22;11794;49.730;10.088;2023-04-03T07:53:27;5.10;99.90
23251;DHT22;11794;49.730;10.088;2023-04-03T07:55:53;4.70;99.90
23251;DHT22;11794;49.730;10.088;2023-04-03T07:58:21;4.50;99.90
23251;DHT22;11794;49.730;10.088;2023-04-03T08:00:46;4.50;99.90
23251;DHT22;11794;49.730;10.088;2023-04-03T08:03:13;4.50;99.90
23251;DHT22;11794;49.730;10.088;2023-04-03T08:05:44;4.60;99.90
23251;DHT22;11794;49.730;10.088;2023-04-03T08:08:11;4.70;99.90
23251;DHT22;11794;49.730;10.088;2023-04-03T08:10:37;5.10;99.90
23251;DHT22;11794;49.730;10.088;2023-04-03T08:13:03;5.70;99.90
23251;DHT22;11794;49.730;10.088;2023-04-03T08:15:30;6.00;99.90
23251;DHT22;11794;49.730;10.088;2023-04-03T08:17:56;6.40;99.90
23251;DHT22;11794;49.730;10.088;2023-04-03T08:20:21;6.40;99.90
23251;DHT22;11794;49.730;10.088;2023-04-03T08:22:47;6.30;99.90
23251;DHT22;11794;49.730;10.088;2023-04-03T08:25:13;6.50;99.90
23251;DHT22;11794;49.730;10.088;2023-04-03T08:27:38;6.30;99.90
23251;DHT22;11794;49.730;10.088;2023-04-03T08:30:05;6.40;99.90
23251;DHT22;11794;49.730;10.088;2023-04-03T08:32:32;6.30;99.90
23251;DHT22;11794;49.730;10.088;2023-04-03T08:34:58;6.30;99.90
23251;DHT22;11794;49.730;10.088;2023-04-03T08:37:24;6.20;99.90
23251;DHT22;11794;49.730;10.088;2023-04-03T08:39:49;6.30;99.90
23251;DHT22;11794;49.730;10.088;2023-04-03T08:42:37;6.40;99.90
23251;DHT22;11794;49.730;10.088;2023-04-03T08:45:22;6.50;99.90
23251;DHT22;11794;49.730;10.088;2023-04-03T08:47:59;6.60;99.90
23251;DHT22;11794;49.730;10.088;2023-04-03T08:50:33;7.40;99.90
23251;DHT22;11794;49.730;10.088;2023-04-03T08:53:02;7.90;99.90
23251;DHT22;11794;49.730;10.088;2023-04-03T08:55:38;8.00;99.90
23251;DHT22;11794;49.730;10.088;2023-04-03T08:58:09;8.20;99.90
23251;DHT22;11794;49.730;10.088;2023-04-03T09:00:49;8.20;99.90
23251;DHT22;11794;49.730;10.088;2023-04-03T09:03:18;8.20;99.90
23251;DHT22;11794;49.730;10.088;2023-04-03T09:05:49;8.30;99.90
23251;DHT22;11794;49.730;10.088;2023-04-03T09:08:28;8.40;99.90
23251;DHT22;11794;49.730;10.088;2023-04-03T09:11:18;8.60;99.90
23251;DHT22;11794;49.730;10.088;2023-04-03T09:19:07;8.80;99.90
23251;DHT22;11794;49.730;10.088;2023-04-03T09:21:37;9.00;99.90
23251;DHT22;11794;49.730;10.088;2023-04-03T09:24:06;9.00;99.90
23251;DHT22;11794;49.730;10.088;2023-04-03T09:26:53;9.40;99.90
23251;DHT22;11794;49.730;10.088;2023-04-03T09:29:21;9.10;99.90
23251;DHT22;11794;49.730;10.088;2023-04-03T09:31:49;8.30;99.90
23251;DHT22;11794;49.730;10.088;2023-04-03T09:34:22;8.20;99.90
23251;DHT22;11794;49.730;10.088;2023-04-03T09:36:50;8.20;99.90
23251;DHT22;11794;49.730;10.088;2023-04-03T09:39:25;8.60;99.90
23251;DHT22;11794;49.730;10.088;2023-04-03T09:42:05;8.60;99.90
23251;DHT22;11794;49.730;10.088;2023-04-03T09:44:33;8.50;99.90
23251;DHT22;11794;49.730;10.088;2023-04-03T09:47:00;8.90;99.90
23251;DHT22;11794;49.730;10.088;2023-04-03T09:49:42;9.40;99.90
23251;DHT22;11794;49.730;10.088;2023-04-03T09:52:23;9.60;99.90
23251;DHT22;11794;49.730;10.088;2023-04-03T09:54:50;9.50;99.90
23251;DHT22;11794;49.730;10.088;2023-04-03T09:57:15;9.80;99.90
23251;DHT22;11794;49.730;10.088;2023-04-03T09:59:46;9.60;99.90
23251;DHT22;11794;49.730;10.088;2023-04-03T10:04:59;8.40;99.90
23251;DHT22;11794;49.730;10.088;2023-04-03T10:07:34;9.10;99.90
23251;DHT22;11794;49.730;10.088;2023-04-03T10:12:41;9.80;99.90
23251;DHT22;11794;49.730;10.088;2023-04-03T10:15:13;10.50;99.90
23251;DHT22;11794;49.730;10.088;2023-04-03T10:17:53;10.40;99.90
23251;DHT22;11794;49.730;10.088;2023-04-03T10:20:37;10.30;99.90
23251;DHT22;11794;49.730;10.088;2023-04-03T10:24:06;10.00;99.90
23251;DHT22;11794;49.730;10.088;2023-04-03T10:29:13;9.40;99.90
23251;DHT22;11794;49.730;10.088;2023-04-03T10:31:50;9.70;99.90
23251;DHT22;11794;49.730;10.088;2023-04-03T10:34:28;9.70;99.90
23251;DHT22;11794;49.730;10.088;2023-04-03T10:37:13;9.80;99.90
23251;DHT22;11794;49.730;10.088;2023-04-03T10:39:54;9.50;99.90
23251;DHT22;11794;49.730;10.088;2023-04-03T10:42:46;9.20;99.90
23251;DHT22;11794;49.730;10.088;2023-04-03T10:45:26;9.60;99.90
23251;DHT22;11794;49.730;10.088;2023-04-03T10:48:11;8.90;99.90
23251;DHT22;11794;49.730;10.088;2023-04-03T10:58:43;8.90;99.90
23251;DHT22;11794;49.730;10.088;2023-04-03T11:01:14;9.60;98.10
23251;DHT22;11794;49.730;10.088;2023-04-03T11:03:48;10.00;97.60
23251;DHT22;11794;49.730;10.088;2023-04-03T11:06:16;10.30;96.00
23251;DHT22;11794;49.730;10.088;2023-04-03T11:11:35;11.70;99.90
23251;DHT22;11794;49.730;10.088;2023-04-03T11:14:05;10.80;98.60
23251;DHT22;11794;49.730;10.088;2023-04-03T11:16:39;10.60;99.90
23251;DHT22;11794;49.730;10.088;2023-04-03T11:22:29;10.50;99.90
23251;DHT22;11794;49.730;10.088;2023-04-03T11:27:42;11.10;98.50
23251;DHT22;11794;49.730;10.088;2023-04-03T11:30:22;11.10;98.20
23251;DHT22;11794;49.730;10.088;2023-04-03T11:33:14;9.90;96.30
23251;DHT22;11794;49.730;10.088;2023-04-03T11:35:46;9.90;98.80
23251;DHT22;11794;49.730;10.088;2023-04-03T11:38:33;10.10;98.50
23251;DHT22;11794;49.730;10.088;2023-04-03T11:41:03;9.40;99.20
23251;DHT22;11794;49.730;10.088;2023-04-03T11:43:31;10.00;98.70
23251;DHT22;11794;49.730;10.088;2023-04-03T11:46:05;10.70;98.10
23251;DHT22;11794;49.730;10.088;2023-04-03T11:48:43;10.20;96.70
23251;DHT22;11794;49.730;10.088;2023-04-03T11:53:39;10.50;98.30
23251;DHT22;11794;49.730;10.088;2023-04-03T12:01:45;11.30;98.70
23251;DHT22;11794;49.730;10.088;2023-04-03T12:04:13;10.60;96.00
23251;DHT22;11794;49.730;10.088;2023-04-03T12:12:38;9.80;96.20
23251;DHT22;11794;49.730;10.088;2023-04-03T12:18:31;11.40;96.40
23251;DHT22;11794;49.730;10.088;2023-04-03T12:20:58;12.10;94.60
23251;DHT22;11794;49.730;10.088;2023-04-03T12:25:51;13.00;95.10
23251;DHT22;11794;49.730;10.088;2023-04-03T12:28:24;13.10;93.80
23251;DHT22;11794;49.730;10.088;2023-04-03T12:30:50;13.20;93.20
23251;DHT22;11794;49.730;10.088;2023-04-03T12:33:23;12.80;93.50
23251;DHT22;11794;49.730;10.088;2023-04-03T12:36:13;12.60;93.50
23251;DHT22;11794;49.730;10.088;2023-04-03T12:39:04;12.80;93.90
23251;DHT22;11794;49.730;10.088;2023-04-03T12:41:53;12.80;93.10
23251;DHT22;11794;49.730;10.088;2023-04-03T12:45:02;13.20;92.60
23251;DHT22;11794;49.730;10.088;2023-04-03T12:47:36;13.70;91.70
23251;DHT22;11794;49.730;10.088;2023-04-03T12:55:24;13.30;92.10
23251;DHT22;11794;49.730;10.088;2023-04-03T12:57:49;13.70;92.30
23251;DHT22;11794;49.730;10.088;2023-04-03T13:00:33;14.00;91.80
23251;DHT22;11794;49.730;10.088;2023-04-03T13:03:01;14.40;91.70
23251;DHT22;11794;49.730;10.088;2023-04-03T13:05:28;14.10;90.70
23251;DHT22;11794;49.730;10.088;2023-04-03T13:08:03;14.60;90.20
23251;DHT22;11794;49.730;10.088;2023-04-03T13:10:31;15.10;89.60
23251;DHT22;11794;49.730;10.088;2023-04-03T13:13:06;14.50;88.70
23251;DHT22;11794;49.730;10.088;2023-04-03T13:15:44;14.50;89.00
23251;DHT22;11794;49.730;10.088;2023-04-03T13:21:01;14.70;88.00
23251;DHT22;11794;49.730;10.088;2023-04-03T13:23:29;15.00;86.80
23251;DHT22;11794;49.730;10.088;2023-04-03T13:25:55;14.60;86.80
23251;DHT22;11794;49.730;10.088;2023-04-03T13:28:24;14.30;83.50
23251;DHT22;11794;49.730;10.088;2023-04-03T13:30:59;14.30;82.40
23251;DHT22;11794;49.730;10.088;2023-04-03T13:33:29;14.40;86.80
23251;DHT22;11794;49.730;10.088;2023-04-03T13:36:17;15.00;83.60
23251;DHT22;11794;49.730;10.088;2023-04-03T13:38:44;14.70;82.90
23251;DHT22;11794;49.730;10.088;2023-04-03T13:41:33;15.40;82.20
23251;DHT22;11794;49.730;10.088;2023-04-03T13:46:51;15.50;81.60
23251;DHT22;11794;49.730;10.088;2023-04-03T13:49:34;14.70;81.40
23251;DHT22;11794;49.730;10.088;2023-04-03T13:52:47;14.90;80.80
23251;DHT22;11794;49.730;10.088;2023-04-03T13:54:53;14.90;80.60
23251;DHT22;11794;49.730;10.088;2023-04-03T13:57:19;15.30;80.70
23251;DHT22;11794;49.730;10.088;2023-04-03T13:59:45;15.10;80.00
23251;DHT22;11794;49.730;10.088;2023-04-03T14:02:21;15.10;80.30
23251;DHT22;11794;49.730;10.088;2023-04-03T14:04:59;15.70;80.40
23251;DHT22;11794;49.730;10.088;2023-04-03T14:07:27;14.70;80.40
23251;DHT22;11794;49.730;10.088;2023-04-03T14:09:53;14.00;78.30
23251;DHT22;11794;49.730;10.088;2023-04-03T14:12:35;13.90;76.80
23251;DHT22;11794;49.730;10.088;2023-04-03T14:15:05;14.90;81.00
23251;DHT22;11794;49.730;10.088;2023-04-03T14:17:32;14.80;79.10
23251;DHT22;11794;49.730;10.088;2023-04-03T14:19:59;14.40;78.00
23251;DHT22;11794;49.730;10.088;2023-04-03T14:22:29;15.00;79.10
23251;DHT22;11794;49.730;10.088;2023-04-03T14:24:55;15.50;80.00
23251;DHT22;11794;49.730;10.088;2023-04-03T14:27:25;15.60;77.40
23251;DHT22;11794;49.730;10.088;2023-04-03T14:29:52;15.30;75.40
23251;DHT22;11794;49.730;10.088;2023-04-03T14:32:20;15.30;79.00
23251;DHT22;11794;49.730;10.088;2023-04-03T14:34:46;15.80;78.70
23251;DHT22;11794;49.730;10.088;2023-04-03T14:37:15;16.10;77.90
23251;DHT22;11794;49.730;10.088;2023-04-03T14:39:42;15.60;77.40
23251;DHT22;11794;49.730;10.088;2023-04-03T14:42:13;14.90;77.40
23251;DHT22;11794;49.730;10.088;2023-04-03T14:44:39;14.50;77.60
23251;DHT22;11794;49.730;10.088;2023-04-03T14:47:04;14.40;79.80
23251;DHT22;11794;49.730;10.088;2023-04-03T14:49:30;14.40;78.70
23251;DHT22;11794;49.730;10.088;2023-04-03T14:51:57;14.50;78.10
23251;DHT22;11794;49.730;10.088;2023-04-03T14:54:23;14.00;77.80
23251;DHT22;11794;49.730;10.088;2023-04-03T14:56:53;13.40;79.40
23251;DHT22;11794;49.730;10.088;2023-04-03T14:59:20;13.50;79.80
23251;DHT22;11794;49.730;10.088;2023-04-03T15:01:47;12.90;79.90
23251;DHT22;11794;49.730;10.088;2023-04-03T15:04:17;12.40;81.80
23251;DHT22;11794;49.730;10.088;2023-04-03T15:06:44;11.80;83.30
23251;DHT22;11794;49.730;10.088;2023-04-03T15:09:28;12.40;80.60
23251;DHT22;11794;49.730;10.088;2023-04-03T15:11:55;12.60;81.30
23251;DHT22;11794;49.730;10.088;2023-04-03T15:14:21;11.90;81.20
23251;DHT22;11794;49.730;10.088;2023-04-03T15:16:46;11.20;83.70
23251;DHT22;11794;49.730;10.088;2023-04-03T15:19:12;10.40;86.60
23251;DHT22;11794;49.730;10.088;2023-04-03T15:21:38;9.60;87.20
23251;DHT22;11794;49.730;10.088;2023-04-03T15:24:05;9.10;84.20
23251;DHT22;11794;49.730;10.088;2023-04-03T15:26:31;9.00;85.10
23251;DHT22;11794;49.730;10.088;2023-04-03T15:28:57;8.70;85.40
23251;DHT22;11794;49.730;10.088;2023-04-03T15:31:22;8.50;87.90
23251;DHT22;11794;49.730;10.088;2023-04-03T15:33:48;8.20;90.00
23251;DHT22;11794;49.730;10.088;2023-04-03T15:36:13;8.20;90.80
23251;DHT22;11794;49.730;10.088;2023-04-03T15:38:39;8.20;91.80
23251;DHT22;11794;49.730;10.088;2023-04-03T15:41:05;8.10;90.40
23251;DHT22;11794;49.730;10.088;2023-04-03T15:43:31;7.90;90.30
23251;DHT22;11794;49.730;10.088;2023-04-03T15:45:59;7.90;90.60
23251;DHT22;11794;49.730;10.088;2023-04-03T15:48:25;7.70;90.60
23251;DHT22;11794;49.730;10.088;2023-04-03T15:50:51;7.60;91.50
23251;DHT22;11794;49.730;10.088;2023-04-03T15:53:16;7.40;90.20
23251;DHT22;11794;49.730;10.088;2023-04-03T15:55:42;7.40;90.30
23251;DHT22;11794;49.730;10.088;2023-04-03T15:58:08;7.40;89.90
23251;DHT22;11794;49.730;10.088;2023-04-03T16:00:35;7.30;91.00
23251;DHT22;11794;49.730;10.088;2023-04-03T16:03:12;7.50;91.80
23251;DHT22;11794;49.730;10.088;2023-04-03T16:05:40;7.40;91.10
23251;DHT22;11794;49.730;10.088;2023-04-03T16:08:06;7.30;90.00
23251;DHT22;11794;49.730;10.088;2023-04-03T16:10:33;7.20;91.30
23251;DHT22;11794;49.730;10.088;2023-04-03T16:12:58;7.10;92.00
23251;DHT22;11794;49.730;10.088;2023-04-03T16:15:24;7.10;92.00
23251;DHT22;11794;49.730;10.088;2023-04-03T16:17:51;7.10;90.60
23251;DHT22;11794;49.730;10.088;2023-04-03T16:20:17;7.10;92.20
23251;DHT22;11794;49.730;10.088;2023-04-03T16:22:44;7.00;91.30
23251;DHT22;11794;49.730;10.088;2023-04-03T16:25:10;6.90;90.90
23251;DHT22;11794;49.730;10.088;2023-04-03T16:27:36;6.80;91.60
23251;DHT22;11794;49.730;10.088;2023-04-03T16:30:02;6.70;92.00
23251;DHT22;11794;49.730;10.088;2023-04-03T16:32:29;6.70;92.00
23251;DHT22;11794;49.730;10.088;2023-04-03T16:34:56;6.70;91.00
23251;DHT22;11794;49.730;10.088;2023-04-03T16:37:22;6.70;91.90
23251;DHT22;11794;49.730;10.088;2023-04-03T16:39:47;6.80;93.00
23251;DHT22;11794;49.730;10.088;2023-04-03T16:42:13;6.70;93.50
23251;DHT22;11794;49.730;10.088;2023-04-03T16:44:38;6.70;93.60
23251;DHT22;11794;49.730;10.088;2023-04-03T16:47:05;6.70;94.50
23251;DHT22;11794;49.730;10.088;2023-04-03T16:49:31;6.70;94.10